createdAt,value
2018-12-01T00:02:08.504Z,93.76
2018-12-01T00:04:37.617Z,93.67
2018-12-01T00:07:10.049Z,93.61
2018-12-01T00:09:38.966Z,93.82
2018-12-01T00:12:07.893Z,94.06
2018-12-01T00:14:40.183Z,93.49
2018-12-01T00:17:09.198Z,93.47
2018-12-01T00:19:38.245Z,93.46
2018-12-01T00:22:07.290Z,93.62
2018-12-01T00:24:36.246Z,93.34
2018-12-01T00:27:07.572Z,93.26
2018-12-01T00:29:36.685Z,92.83
2018-12-01T00:32:06.018Z,93.14
2018-12-01T00:34:35.000Z,93.18
2018-12-01T00:37:03.995Z,93.18
2018-12-01T00:39:33.228Z,93.37
2018-12-01T00:42:08.888Z,92.12
2018-12-01T00:44:37.826Z,92.77
2018-12-01T00:47:07.307Z,92.84
2018-12-01T00:49:38.022Z,92.99
2018-12-01T00:52:07.016Z,93.23
2018-12-01T00:54:36.371Z,93.10
2018-12-01T00:57:05.320Z,92.97
2018-12-01T00:59:34.224Z,93.27
2018-12-01T01:02:05.856Z,93.26
2018-12-01T01:04:34.783Z,92.93
2018-12-01T01:07:04.011Z,93.26
2018-12-01T01:09:36.183Z,93.17
2018-12-01T01:12:06.175Z,92.86
2018-12-01T01:14:35.255Z,93.00
2018-12-01T01:17:05.595Z,93.02
2018-12-01T01:19:34.625Z,93.58
2018-12-01T01:22:04.320Z,93.46
2018-12-01T01:24:39.393Z,93.01
2018-12-01T01:27:08.392Z,93.38
2018-12-01T01:29:37.312Z,93.04
2018-12-01T01:32:07.469Z,93.13
2018-12-01T01:34:37.405Z,92.79
2018-12-01T01:37:06.444Z,93.44
2018-12-01T01:39:35.807Z,93.29
2018-12-01T01:42:06.024Z,93.21
2018-12-01T01:44:34.959Z,93.42
2018-12-01T01:47:07.556Z,92.72
2018-12-01T01:49:36.479Z,93.12
2018-12-01T01:52:10.672Z,93.85
2018-12-01T01:54:40.070Z,93.67
2018-12-01T01:57:12.779Z,93.61
2018-12-01T01:59:41.780Z,93.85
2018-12-01T02:02:11.211Z,93.37
2018-12-01T02:04:40.236Z,93.65
2018-12-01T02:07:09.194Z,92.99
2018-12-01T02:09:44.881Z,92.87
2018-12-01T02:12:13.890Z,92.91
2018-12-01T02:14:47.662Z,93.16
2018-12-01T02:17:17.924Z,93.05
2018-12-01T02:19:46.833Z,92.83
2018-12-01T02:22:15.826Z,92.59
2018-12-01T02:24:44.689Z,92.69
2018-12-01T02:27:13.566Z,92.73
2018-12-01T02:29:42.432Z,92.76
2018-12-01T02:32:11.679Z,93.10
2018-12-01T02:34:43.549Z,92.81
2018-12-01T02:37:12.432Z,92.67
2018-12-01T02:42:15.398Z,92.58
2018-12-01T02:44:56.670Z,92.37
2018-12-01T02:47:25.672Z,92.22
2018-12-01T02:49:54.996Z,92.65
2018-12-01T02:52:24.474Z,92.31
2018-12-01T02:54:53.487Z,92.37
2018-12-01T02:57:22.420Z,92.08
2018-12-01T02:59:51.790Z,92.25
2018-12-01T03:05:00.666Z,92.06
2018-12-01T03:07:29.640Z,91.75
2018-12-01T03:09:58.643Z,92.35
2018-12-01T03:12:28.048Z,92.38
2018-12-01T03:14:57.016Z,91.93
2018-12-01T03:17:25.929Z,91.11
2018-12-01T03:19:56.353Z,91.55
2018-12-01T03:22:25.312Z,91.85
2018-12-01T03:24:54.229Z,92.11
2018-12-01T03:27:23.661Z,92.22
2018-12-01T03:29:52.633Z,91.11
2018-12-01T03:32:21.594Z,90.78
2018-12-01T03:34:55.089Z,91.91
2018-12-01T03:37:24.105Z,91.92
2018-12-01T03:39:54.048Z,91.91
2018-12-01T03:42:22.992Z,92.08
2018-12-01T03:44:58.639Z,91.84
2018-12-01T03:47:27.975Z,91.95
2018-12-01T03:49:56.854Z,92.40
2018-12-01T03:52:31.063Z,92.36
2018-12-01T03:55:00.378Z,91.43
2018-12-01T03:57:29.282Z,91.57
2018-12-01T03:59:58.164Z,91.94
2018-12-01T04:02:27.514Z,92.95
2018-12-01T04:04:56.484Z,92.53
2018-12-01T04:07:25.339Z,92.14
2018-12-01T04:09:55.604Z,91.86
2018-12-01T04:12:24.560Z,92.12
2018-12-01T04:14:53.506Z,92.62
2018-12-01T04:17:22.989Z,92.70
2018-12-01T04:19:51.964Z,92.95
2018-12-01T04:22:20.892Z,92.93
2018-12-01T04:24:55.067Z,92.48
2018-12-01T04:27:24.026Z,92.49
2018-12-01T04:29:52.941Z,93.07
2018-12-01T04:32:22.211Z,91.75
2018-12-01T04:34:51.143Z,91.76
2018-12-01T04:37:20.042Z,92.12
2018-12-01T04:39:49.256Z,92.46
2018-12-01T04:42:18.211Z,92.26
2018-12-01T04:44:47.112Z,91.94
2018-12-01T04:47:16.377Z,92.39
2018-12-01T04:49:45.260Z,92.43
2018-12-01T04:52:19.122Z,92.37
2018-12-01T04:54:49.337Z,92.35
2018-12-01T04:57:21.582Z,92.65
2018-12-01T04:59:50.488Z,92.69
2018-12-01T05:02:20.898Z,92.58
2018-12-01T05:04:49.775Z,92.65
2018-12-01T05:07:19.786Z,92.70
2018-12-01T05:09:48.696Z,92.78
2018-12-01T05:12:17.611Z,93.30
2018-12-01T05:14:47.881Z,93.08
2018-12-01T05:17:17.980Z,92.45
2018-12-01T05:19:46.873Z,92.18
2018-12-01T05:22:15.807Z,92.64
2018-12-01T05:24:44.748Z,93.21
2018-12-01T05:27:14.071Z,93.07
2018-12-01T05:29:42.983Z,93.40
2018-12-01T05:32:12.074Z,93.65
2018-12-01T05:34:41.498Z,93.78
2018-12-01T05:37:10.451Z,93.97
2018-12-01T05:39:39.452Z,94.67
2018-12-01T05:42:09.803Z,94.68
2018-12-01T05:44:38.742Z,94.39
2018-12-01T05:47:07.732Z,94.48
2018-12-01T05:49:37.149Z,94.39
2018-12-01T05:52:06.847Z,94.40
2018-12-01T05:54:41.306Z,94.38
2018-12-01T05:57:10.542Z,94.58
2018-12-01T05:59:39.876Z,94.41
2018-12-01T06:02:08.914Z,94.23
2018-12-01T06:04:38.196Z,94.06
2018-12-01T06:07:07.256Z,94.11
2018-12-01T06:09:36.252Z,93.62
2018-12-01T06:12:06.106Z,93.68
2018-12-01T06:14:35.105Z,93.67
2018-12-01T06:17:04.103Z,93.31
2018-12-01T06:19:33.443Z,93.23
2018-12-01T06:22:03.074Z,93.34
2018-12-01T06:24:32.173Z,92.69
2018-12-01T06:27:10.604Z,92.94
2018-12-01T06:29:39.446Z,93.13
2018-12-01T06:32:09.213Z,93.12
2018-12-01T06:34:38.482Z,92.59
2018-12-01T06:37:07.499Z,92.84
2018-12-01T06:39:36.421Z,93.07
2018-12-01T06:42:07.570Z,93.88
2018-12-01T06:44:36.555Z,93.96
2018-12-01T06:47:05.526Z,94.06
2018-12-01T06:49:34.925Z,93.98
2018-12-01T06:52:05.925Z,93.42
2018-12-01T06:54:34.896Z,93.72
2018-12-01T06:57:04.341Z,93.62
2018-12-01T06:59:33.248Z,93.35
2018-12-01T07:02:02.476Z,93.37
2018-12-01T07:04:31.912Z,93.66
2018-12-01T07:07:00.855Z,93.42
2018-12-01T07:09:36.817Z,93.43
2018-12-01T07:12:06.206Z,93.51
2018-12-01T07:14:35.126Z,93.53
2018-12-01T07:17:13.900Z,93.38
2018-12-01T07:19:43.427Z,93.32
2018-12-01T07:22:12.716Z,92.25
2018-12-01T07:24:44.419Z,92.15
2018-12-01T07:27:13.369Z,92.58
2018-12-01T07:29:42.752Z,92.06
2018-12-01T07:32:11.707Z,92.37
2018-12-01T07:34:40.634Z,92.16
2018-12-01T07:37:10.033Z,92.20
2018-12-01T07:39:40.018Z,91.97
2018-12-01T07:42:09.085Z,92.23
2018-12-01T07:44:53.345Z,91.58
2018-12-01T07:47:23.007Z,91.06
2018-12-01T07:49:52.412Z,90.48
2018-12-01T07:52:21.435Z,89.77
2018-12-01T07:54:50.408Z,89.42
2018-12-01T07:57:19.345Z,87.86
2018-12-01T07:59:58.224Z,86.92
2018-12-01T08:02:27.696Z,86.61
2018-12-01T08:04:56.659Z,86.74
2018-12-01T08:07:25.660Z,86.59
2018-12-01T08:09:55.049Z,86.13
2018-12-01T08:12:24.442Z,85.71
2018-12-01T08:14:53.783Z,85.57
2018-12-01T08:17:30.709Z,84.24
2018-12-01T08:20:00.048Z,84.62
2018-12-01T08:22:29.515Z,85.25
2018-12-01T08:25:00.035Z,85.07
2018-12-01T08:27:29.037Z,84.36
2018-12-01T08:29:58.035Z,83.72
2018-12-01T08:32:27.455Z,84.11
2018-12-01T08:34:56.346Z,84.80
2018-12-01T08:37:26.804Z,83.51
2018-12-01T08:39:57.355Z,83.48
2018-12-01T08:42:26.526Z,84.52
2018-12-01T08:44:55.691Z,84.52
2018-12-01T08:47:25.283Z,84.72
2018-12-01T08:49:54.415Z,84.43
2018-12-01T08:52:23.383Z,83.86
2018-12-01T08:54:52.993Z,83.85
2018-12-01T08:57:21.957Z,83.68
2018-12-01T08:59:51.133Z,83.38
2018-12-01T09:02:20.562Z,82.77
2018-12-01T09:04:55.704Z,83.26
2018-12-01T09:07:24.685Z,82.85
2018-12-01T09:09:57.498Z,82.05
2018-12-01T09:12:26.559Z,82.70
2018-12-01T09:14:56.361Z,82.17
2018-12-01T09:17:26.027Z,81.54
2018-12-01T09:19:55.567Z,81.09
2018-12-01T09:22:24.518Z,81.43
2018-12-01T09:24:53.491Z,81.53
2018-12-01T09:27:22.760Z,81.77
2018-12-01T09:29:51.647Z,80.54
2018-12-01T09:32:20.733Z,79.82
2018-12-01T09:34:51.733Z,79.12
2018-12-01T09:37:21.050Z,78.12
2018-12-01T09:39:50.457Z,77.63
2018-12-01T09:42:24.706Z,77.29
2018-12-01T09:44:49.768Z,77.28
2018-12-01T09:47:18.799Z,78.63
2018-12-01T09:49:47.934Z,78.22
2018-12-01T09:52:17.248Z,78.16
2018-12-01T09:54:46.791Z,78.56
2018-12-01T09:57:16.035Z,78.61
2018-12-01T09:59:45.332Z,78.99
2018-12-01T10:02:16.692Z,79.21
2018-12-01T10:04:45.912Z,78.74
2018-12-01T10:07:15.365Z,78.26
2018-12-01T10:09:44.428Z,77.31
2018-12-01T10:12:13.405Z,77.57
2018-12-01T10:14:45.857Z,77.32
2018-12-01T10:17:14.866Z,77.51
2018-12-01T10:19:43.870Z,76.92
2018-12-01T10:22:13.381Z,76.66
2018-12-01T10:24:53.426Z,76.22
2018-12-01T10:27:28.429Z,73.89
2018-12-01T10:30:04.124Z,73.88
2018-12-01T10:32:33.459Z,73.12
2018-12-01T10:35:02.469Z,72.43
2018-12-01T10:37:31.380Z,70.90
2018-12-01T10:40:05.500Z,71.66
2018-12-01T10:42:35.298Z,71.78
2018-12-01T10:45:16.178Z,70.96
2018-12-01T10:47:49.797Z,71.55
2018-12-01T10:50:22.630Z,70.49
2018-12-01T10:52:54.179Z,71.28
2018-12-01T10:55:26.412Z,71.71
2018-12-01T10:58:01.473Z,72.85
2018-12-01T11:00:36.483Z,71.90
2018-12-01T11:03:15.192Z,73.06
2018-12-01T11:05:45.059Z,71.63
2018-12-01T11:08:18.663Z,70.61
2018-12-01T11:10:48.955Z,71.09
2018-12-01T11:13:18.735Z,71.26
2018-12-01T11:15:48.436Z,70.93
2018-12-01T11:18:18.069Z,70.33
2018-12-01T11:20:48.393Z,70.62
2018-12-01T11:23:17.975Z,70.39
2018-12-01T11:25:47.680Z,71.46
2018-12-01T11:28:17.803Z,71.56
2018-12-01T11:30:48.132Z,71.62
2018-12-01T11:33:17.708Z,71.29
2018-12-01T11:35:47.888Z,71.75
2018-12-01T11:38:17.702Z,71.06
2018-12-01T11:40:46.886Z,70.87
2018-12-01T11:43:16.352Z,68.89
2018-12-01T11:45:45.385Z,67.41
2018-12-01T11:48:15.219Z,66.61
2018-12-01T11:50:44.772Z,65.82
2018-12-01T11:53:13.830Z,67.72
2018-12-01T11:55:46.104Z,70.05
2018-12-01T11:58:15.480Z,69.61
2018-12-01T12:00:47.472Z,70.78
2018-12-01T12:06:16.316Z,71.21
2018-12-01T12:08:50.080Z,70.80
2018-12-01T12:11:19.481Z,71.42
2018-12-01T12:14:03.391Z,70.93
2018-12-01T12:16:32.727Z,71.23
2018-12-01T12:19:01.822Z,71.05
2018-12-01T12:21:37.086Z,70.89
2018-12-01T12:24:06.982Z,70.03
2018-12-01T12:26:36.101Z,70.02
2018-12-01T12:29:05.367Z,69.20
2018-12-01T12:31:34.736Z,68.25
2018-12-01T12:34:04.559Z,67.14
2018-12-01T12:36:33.501Z,68.23
2018-12-01T12:39:02.801Z,68.02
2018-12-01T12:41:31.733Z,68.33
2018-12-01T12:44:00.739Z,68.60
2018-12-01T12:46:30.115Z,69.47
2018-12-01T12:49:00.136Z,69.81
2018-12-01T12:51:29.144Z,69.66
2018-12-01T12:54:01.047Z,70.67
2018-12-01T12:56:30.010Z,70.73
2018-12-01T12:58:58.938Z,70.32
2018-12-01T13:01:28.418Z,69.89
2018-12-01T13:03:58.437Z,69.37
2018-12-01T13:06:27.333Z,69.12
2018-12-01T13:08:56.452Z,69.46
2018-12-01T13:11:25.429Z,69.96
2018-12-01T13:13:54.421Z,70.56
2018-12-01T13:16:23.721Z,71.63
2018-12-01T13:18:52.620Z,71.84
2018-12-01T13:21:21.647Z,71.69
2018-12-01T13:23:51.095Z,71.45
2018-12-01T13:26:20.048Z,71.45
2018-12-01T13:28:49.631Z,72.19
2018-12-01T13:31:18.925Z,71.49
2018-12-01T13:33:47.950Z,72.14
2018-12-01T13:38:47.800Z,71.48
2018-12-01T13:41:16.922Z,72.04
2018-12-01T13:43:45.904Z,71.46
2018-12-01T13:46:15.215Z,71.00
2018-12-01T13:48:44.226Z,70.60
2018-12-01T13:51:13.185Z,70.34
2018-12-01T13:53:44.683Z,70.46
2018-12-01T13:56:13.779Z,69.51
2018-12-01T13:58:43.962Z,69.97
2018-12-01T14:01:13.372Z,69.81
2018-12-01T14:03:42.359Z,70.21
2018-12-01T14:06:11.326Z,71.20
2018-12-01T14:08:40.742Z,70.05
2018-12-01T14:13:49.321Z,72.25
2018-12-01T14:16:23.720Z,71.99
2018-12-01T14:18:52.855Z,72.02
2018-12-01T14:21:21.868Z,72.61
2018-12-01T14:23:52.016Z,72.92
2018-12-01T14:26:21.076Z,72.47
2018-12-01T14:28:54.346Z,72.40
2018-12-01T14:31:23.376Z,72.68
2018-12-01T14:33:58.742Z,72.07
2018-12-01T14:36:28.348Z,71.91
2018-12-01T14:38:57.534Z,73.14
2018-12-01T14:41:26.677Z,73.33
2018-12-01T14:43:57.105Z,73.11
2018-12-01T14:46:26.262Z,72.92
2018-12-01T14:48:55.289Z,73.15
2018-12-01T14:51:28.491Z,73.61
2018-12-01T14:56:46.516Z,74.16
2018-12-01T14:59:15.739Z,74.13
2018-12-01T15:01:44.886Z,74.14
2018-12-01T15:04:14.647Z,74.30
2018-12-01T15:06:44.504Z,75.13
2018-12-01T15:09:13.657Z,75.18
2018-12-01T15:11:43.775Z,74.65
2018-12-01T15:14:12.972Z,74.92
2018-12-01T15:16:44.357Z,74.87
2018-12-01T15:19:14.433Z,75.05
2018-12-01T15:21:48.168Z,75.62
2018-12-01T15:26:53.983Z,76.06
2018-12-01T15:29:22.776Z,76.34
2018-12-01T15:31:52.324Z,76.81
2018-12-01T15:34:20.920Z,76.66
2018-12-01T15:36:49.547Z,76.72
2018-12-01T15:39:33.110Z,76.75
2018-12-01T15:42:01.746Z,76.88
2018-12-01T15:44:30.619Z,77.55
2018-12-01T15:46:59.238Z,77.39
2018-12-01T15:49:27.844Z,77.08
2018-12-01T15:51:56.415Z,77.43
2018-12-01T15:54:25.347Z,76.86
2018-12-01T15:56:53.900Z,77.04
2018-12-01T15:59:22.758Z,76.90
2018-12-01T16:01:57.377Z,76.40
2018-12-01T16:04:33.519Z,76.76
2018-12-01T16:07:08.168Z,77.63
2018-12-01T16:09:37.175Z,77.45
2018-12-01T16:12:06.282Z,77.34
2018-12-01T16:14:35.176Z,77.46
2018-12-01T16:17:03.753Z,77.78
2018-12-01T16:19:32.365Z,78.03
2018-12-01T16:22:02.099Z,77.45
2018-12-01T16:24:30.730Z,77.66
2018-12-01T16:29:30.154Z,77.36
2018-12-01T16:31:58.813Z,77.74
2018-12-01T16:34:27.495Z,77.00
2018-12-01T16:36:56.481Z,77.26
2018-12-01T16:39:25.086Z,77.73
2018-12-01T16:41:53.768Z,77.83
2018-12-01T16:44:22.414Z,78.11
2018-12-01T16:46:51.017Z,78.15
2018-12-01T16:49:19.993Z,77.78
2018-12-01T16:51:48.717Z,78.13
2018-12-01T16:54:18.117Z,77.28
2018-12-01T16:56:47.338Z,76.92
2018-12-01T16:59:15.940Z,76.95
2018-12-01T17:01:44.571Z,76.93
2018-12-01T17:04:13.522Z,76.78
2018-12-01T17:06:42.226Z,76.86
2018-12-01T17:09:10.954Z,76.65
2018-12-01T17:11:39.929Z,77.42
2018-12-01T17:14:08.563Z,76.32
2018-12-01T17:16:37.122Z,76.58
2018-12-01T17:19:06.358Z,76.27
2018-12-01T17:21:34.931Z,76.91
2018-12-01T17:24:04.434Z,76.56
2018-12-01T17:26:33.143Z,77.21
2018-12-01T17:29:01.684Z,77.78
2018-12-01T17:31:30.524Z,77.75
2018-12-01T17:33:59.166Z,77.21
2018-12-01T17:36:27.746Z,78.11
2018-12-01T17:38:56.690Z,78.00
2018-12-01T17:41:27.384Z,78.13
2018-12-01T17:44:08.166Z,78.11
2018-12-01T17:46:37.118Z,77.98
2018-12-01T17:49:06.669Z,78.21
2018-12-01T17:51:35.345Z,78.50
2018-12-01T17:54:13.749Z,78.22
2018-12-01T17:56:42.507Z,78.67
2018-12-01T17:59:11.160Z,79.10
2018-12-01T18:01:39.810Z,78.98
2018-12-01T18:04:08.518Z,79.50
2018-12-01T18:06:37.170Z,79.39
2018-12-01T18:09:08.590Z,79.56
2018-12-01T18:11:38.209Z,79.13
2018-12-01T18:14:09.145Z,79.65
2018-12-01T18:16:37.768Z,79.86
2018-12-01T18:19:06.877Z,80.47
2018-12-01T18:21:35.738Z,79.94
2018-12-01T18:24:06.454Z,80.25
2018-12-01T18:26:35.677Z,80.43
2018-12-01T18:29:04.415Z,79.92
2018-12-01T18:31:33.059Z,80.64
2018-12-01T18:34:11.004Z,80.28
2018-12-01T18:36:39.654Z,80.05
2018-12-01T18:39:11.823Z,80.44
2018-12-01T18:41:40.442Z,80.24
2018-12-01T18:44:09.105Z,80.05
2018-12-01T18:46:38.084Z,80.26
2018-12-01T18:49:06.865Z,80.47
2018-12-01T18:51:35.522Z,80.23
2018-12-01T18:54:05.989Z,79.88
2018-12-01T18:56:34.732Z,79.72
2018-12-01T18:59:03.393Z,80.15
2018-12-01T19:01:35.494Z,79.55
2018-12-01T19:04:05.628Z,79.64
2018-12-01T19:06:34.594Z,79.72
2018-12-01T19:09:04.958Z,79.25
2018-12-01T19:11:33.554Z,79.48
2018-12-01T19:14:04.213Z,79.31
2018-12-01T19:16:33.469Z,79.37
2018-12-01T19:19:02.476Z,79.13
2018-12-01T19:21:31.368Z,78.65
2018-12-01T19:24:01.089Z,78.09
2018-12-01T19:26:30.410Z,77.80
2018-12-01T19:29:00.909Z,77.61
2018-12-01T19:31:29.547Z,77.90
2018-12-01T19:33:58.440Z,77.75
2018-12-01T19:36:27.862Z,77.71
2018-12-01T19:38:56.733Z,76.83
2018-12-01T19:41:26.846Z,76.75
2018-12-01T19:43:55.624Z,76.88
2018-12-01T19:46:24.251Z,76.10
2018-12-01T19:48:53.350Z,76.89
2018-12-01T19:51:22.390Z,76.63
2018-12-01T19:53:51.815Z,76.07
2018-12-01T19:56:20.474Z,75.48
2018-12-01T19:58:49.182Z,75.33
2018-12-01T20:01:18.954Z,75.42
2018-12-01T20:03:49.151Z,75.50
2018-12-01T20:06:17.880Z,75.30
2018-12-01T20:08:47.742Z,75.04
2018-12-01T20:11:16.553Z,75.48
2018-12-01T20:13:45.932Z,74.89
2018-12-01T20:16:24.002Z,74.75
2018-12-01T20:18:54.345Z,74.59
2018-12-01T20:21:23.739Z,73.60
2018-12-01T20:23:52.781Z,73.49
2018-12-01T20:26:21.552Z,74.00
2018-12-01T20:28:50.439Z,73.79
2018-12-01T20:31:20.579Z,73.62
2018-12-01T20:33:50.902Z,73.10
2018-12-01T20:36:22.461Z,73.07
2018-12-01T20:38:56.682Z,72.95
2018-12-01T20:41:25.729Z,72.74
2018-12-01T20:43:54.472Z,71.90
2018-12-01T20:46:23.115Z,71.98
2018-12-01T20:48:51.879Z,72.53
2018-12-01T20:51:20.994Z,72.56
2018-12-01T20:53:50.187Z,72.11
2018-12-01T20:56:21.004Z,71.85
2018-12-01T20:58:50.202Z,71.90
2018-12-01T21:01:19.062Z,71.00
2018-12-01T21:03:47.970Z,70.30
2018-12-01T21:06:17.055Z,70.80
2018-12-01T21:08:45.859Z,70.85
2018-12-01T21:11:15.534Z,70.76
2018-12-01T21:13:44.233Z,70.57
2018-12-01T21:16:13.578Z,71.00
2018-12-01T21:18:42.260Z,70.58
2018-12-01T21:21:11.786Z,70.07
2018-12-01T21:23:41.481Z,70.62
2018-12-01T21:26:10.097Z,70.83
2018-12-01T21:28:38.803Z,70.77
2018-12-01T21:31:08.813Z,70.32
2018-12-01T21:33:37.476Z,70.25
2018-12-01T21:36:07.062Z,70.13
2018-12-01T21:38:36.605Z,70.48
2018-12-01T21:41:05.703Z,70.86
2018-12-01T21:43:34.349Z,70.78
2018-12-01T21:46:05.044Z,70.93
2018-12-01T21:48:33.657Z,71.13
2018-12-01T21:51:02.313Z,71.27
2018-12-01T21:53:31.273Z,71.28
2018-12-01T21:56:00.831Z,71.16
2018-12-01T21:58:29.382Z,70.39
2018-12-01T22:00:59.721Z,70.70
2018-12-01T22:03:29.467Z,70.97
2018-12-01T22:05:59.785Z,70.94
2018-12-01T22:08:28.508Z,70.87
2018-12-01T22:10:58.560Z,71.06
2018-12-01T22:13:27.374Z,71.08
2018-12-01T22:15:56.077Z,71.04
2018-12-01T22:18:25.761Z,70.55
2018-12-01T22:20:54.397Z,70.76
2018-12-01T22:23:23.030Z,70.82
2018-12-01T22:25:52.133Z,70.12
2018-12-01T22:28:20.865Z,70.44
2018-12-01T22:30:50.813Z,70.56
2018-12-01T22:33:22.699Z,70.32
2018-12-01T22:35:51.359Z,70.23
2018-12-01T22:38:20.027Z,70.55
2018-12-01T22:40:49.142Z,70.07
2018-12-01T22:43:17.798Z,70.58
2018-12-01T22:45:46.366Z,70.68
2018-12-01T22:48:17.528Z,70.79
2018-12-01T22:50:47.562Z,70.46
2018-12-01T22:53:16.578Z,70.58
2018-12-01T22:55:45.730Z,70.22
2018-12-01T22:58:17.404Z,70.63
2018-12-01T23:00:54.304Z,69.71
2018-12-01T23:03:23.474Z,70.25
2018-12-01T23:05:52.067Z,70.89
2018-12-01T23:08:22.558Z,70.01
2018-12-01T23:10:51.343Z,70.77
2018-12-01T23:13:20.104Z,70.19
2018-12-01T23:15:49.142Z,70.89
2018-12-01T23:18:18.919Z,70.69
2018-12-01T23:20:48.257Z,71.06
2018-12-01T23:23:16.831Z,70.83
2018-12-01T23:25:45.865Z,70.50
2018-12-01T23:28:14.538Z,70.39
2018-12-01T23:30:48.594Z,70.72
2018-12-01T23:33:20.696Z,71.28
2018-12-01T23:35:49.306Z,70.89
2018-12-01T23:38:17.993Z,70.74
2018-12-01T23:40:47.103Z,71.04
2018-12-01T23:43:15.668Z,70.59
2018-12-01T23:45:44.739Z,70.84
2018-12-01T23:48:13.386Z,70.95
2018-12-01T23:50:47.134Z,71.40
2018-12-01T23:53:16.805Z,71.81
2018-12-01T23:59:16.627Z,71.41
